Time;durP1;ratioP1;P1;durP2;ratioP2;P2;SDS_P1;SDS_P2;PMS_P1;PMS_P2;Temp;Humidity;BMP_temperature;BMP_pressure;BME280_temperature;BME280_humidity;BME280_pressure;Samples;Min_cycle;Max_cycle;Signal;HPM_P1;HPM_P2
2023/12/19 00:00:15;;;;;;;0.80;0.50;;;;;;;-143.84;59.19;45203.31;5051198;28;20492;-59
2023/12/19 00:02:44;;;;;;;0.80;0.47;;;;;;;-143.84;59.68;45201.41;5050998;28;20441;-59
2023/12/19 00:05:11;;;;;;;0.80;0.50;;;;;;;-143.84;59.60;45176.66;5050990;28;20503;-59
2023/12/19 00:07:38;;;;;;;0.80;0.60;;;;;;;-143.84;59.47;45193.78;5051422;28;20441;-59
2023/12/19 00:10:06;;;;;;;0.80;0.50;;;;;;;-143.84;59.00;45186.16;5051323;28;21032;-59
2023/12/19 00:12:33;;;;;;;0.80;0.60;;;;;;;-143.84;58.37;45184.25;5051121;28;20955;-59
2023/12/19 00:15:00;;;;;;;0.80;0.40;;;;;;;-143.84;58.68;45172.84;5050895;28;20502;-59
2023/12/19 00:17:28;;;;;;;0.80;0.40;;;;;;;-143.84;58.04;45212.84;5049756;28;20489;-59
2023/12/19 00:19:57;;;;;;;4.00;0.83;;;;;;;-143.84;57.76;45188.06;5050779;28;20446;-59
2023/12/19 00:22:24;;;;;;;0.80;0.50;;;;;;;-143.84;58.06;45201.41;5050624;28;20454;-59
2023/12/19 00:24:52;;;;;;;0.80;0.50;;;;;;;-143.84;57.21;45209.03;5050699;28;20833;-59
2023/12/19 00:27:19;;;;;;;0.80;0.50;;;;;;;-143.84;56.45;45176.66;5050551;28;20441;-59
2023/12/19 00:29:46;;;;;;;0.80;0.57;;;;;;;-143.84;56.49;45188.06;5050655;28;20862;-59
2023/12/19 00:32:13;;;;;;;1.67;0.70;;;;;;;-143.84;56.17;45189.97;5050335;28;20437;-59
2023/12/19 00:34:40;;;;;;;0.80;0.40;;;;;;;-143.84;56.17;45184.25;5050369;28;20438;-59
2023/12/19 00:37:09;;;;;;;0.80;0.60;;;;;;;-143.84;55.85;45188.06;5050360;28;20863;-59
2023/12/19 00:39:37;;;;;;;0.80;0.70;;;;;;;-143.84;55.69;45155.69;5050465;28;20595;-59
2023/12/19 00:42:04;;;;;;;0.80;0.53;;;;;;;-143.84;55.75;45176.66;5050299;28;20507;-59
2023/12/19 00:44:31;;;;;;;0.80;0.50;;;;;;;-143.84;55.22;45180.47;5050197;28;20442;-60
2023/12/19 00:46:58;;;;;;;0.80;0.60;;;;;;;-143.84;55.33;45165.22;5050157;28;20466;-60
2023/12/19 00:49:26;;;;;;;1.30;0.60;;;;;;;-143.84;54.89;45159.50;5050385;28;20977;-60
2023/12/19 00:51:53;;;;;;;4.30;1.17;;;;;;;-143.84;54.66;45169.03;5050038;28;20438;-59
2023/12/19 00:54:21;;;;;;;1.10;0.80;;;;;;;-143.84;54.38;45186.16;5049948;28;20528;-59
2023/12/19 00:56:48;;;;;;;0.80;0.70;;;;;;;-143.84;54.43;45174.75;5050201;28;20429;-59
2023/12/19 00:59:15;;;;;;;0.80;0.60;;;;;;;-143.84;54.44;45193.78;5050115;28;20560;-59
2023/12/19 01:01:43;;;;;;;0.90;0.60;;;;;;;-143.84;54.37;45167.13;5050160;28;20449;-60
2023/12/19 01:04:10;;;;;;;0.80;0.60;;;;;;;-143.84;54.23;45169.03;5049994;28;20910;-60
2023/12/19 01:06:38;;;;;;;3.17;0.60;;;;;;;-143.84;54.49;45169.03;5049818;28;20450;-60
2023/12/19 01:09:05;;;;;;;0.80;0.60;;;;;;;-143.84;54.40;45201.41;5049611;28;21034;-60
2023/12/19 01:11:34;;;;;;;0.80;0.50;;;;;;;-143.84;54.35;45163.31;5049535;28;20469;-60
2023/12/19 01:14:01;;;;;;;0.80;0.40;;;;;;;-143.84;54.41;45186.16;5049951;28;20520;-60
2023/12/19 01:16:28;;;;;;;0.80;0.50;;;;;;;-143.84;54.37;45184.25;5049808;28;20882;-60
2023/12/19 01:18:55;;;;;;;6.73;1.33;;;;;;;-143.84;54.42;45174.75;5049700;28;20481;-60
2023/12/19 01:21:22;;;;;;;0.90;0.70;;;;;;;-143.84;54.28;45174.75;5049363;28;20446;-60
2023/12/19 01:23:49;;;;;;;0.80;0.50;;;;;;;-143.84;53.89;45203.31;5049632;28;20438;-59
2023/12/19 01:26:17;;;;;;;0.80;0.67;;;;;;;-143.84;53.94;45197.59;5049625;28;20527;-60
2023/12/19 01:28:45;;;;;;;0.80;0.50;;;;;;;-143.84;54.55;45207.13;5049296;28;20444;-60
2023/12/19 01:31:12;;;;;;;0.80;0.40;;;;;;;-143.84;54.57;45189.97;5049229;28;20503;-60
2023/12/19 01:33:39;;;;;;;0.93;0.80;;;;;;;-143.84;54.37;45193.78;5049466;28;20983;-59
2023/12/19 01:36:07;;;;;;;0.83;0.60;;;;;;;-143.84;54.15;45170.94;5049432;28;21092;-59
2023/12/19 01:38:34;;;;;;;0.80;0.50;;;;;;;-143.84;53.69;45161.41;5049169;28;20477;-59
2023/12/19 01:41:01;;;;;;;0.80;0.60;;;;;;;-143.84;53.92;45201.41;5049343;28;20862;-59
2023/12/19 01:43:28;;;;;;;1.20;0.93;;;;;;;-143.84;53.87;45186.16;5049129;28;20912;-59
2023/12/19 01:45:57;;;;;;;0.97;0.87;;;;;;;-143.84;53.46;45197.59;5049316;28;20506;-59
2023/12/19 01:48:26;;;;;;;1.50;0.83;;;;;;;-143.84;53.36;45169.03;5049225;28;20848;-59
2023/12/19 01:50:53;;;;;;;0.80;0.40;;;;;;;-143.84;53.58;45167.13;5049190;28;20434;-59
2023/12/19 01:53:22;;;;;;;0.80;0.40;;;;;;;-143.84;53.64;45150.00;5049222;28;20499;-59
2023/12/19 01:55:52;;;;;;;1.20;0.80;;;;;;;-143.84;53.17;45176.66;5048633;28;20496;-58
2023/12/19 01:58:21;;;;;;;8.20;2.57;;;;;;;-143.84;52.98;45163.31;5048658;28;20859;-59
2023/12/19 02:00:48;;;;;;;1.23;0.70;;;;;;;-143.84;52.79;45205.22;5048837;28;20811;-59
2023/12/19 02:03:17;;;;;;;0.80;0.50;;;;;;;-143.84;53.04;45189.97;5048961;28;20802;-59
2023/12/19 02:05:49;;;;;;;2.13;0.70;;;;;;;-143.84;52.85;45167.13;5048700;28;20967;-59
2023/12/19 02:08:16;;;;;;;2.60;0.93;;;;;;;-143.84;52.70;45180.47;5049166;28;20473;-59
2023/12/19 02:10:44;;;;;;;1.73;1.07;;;;;;;-143.84;52.10;45174.75;5048937;28;20440;-57
2023/12/19 02:13:12;;;;;;;0.80;0.50;;;;;;;-143.84;52.23;45214.72;5048902;28;20445;-57
2023/12/19 02:15:39;;;;;;;0.80;0.40;;;;;;;-143.84;52.33;45182.38;5048748;28;20842;-57
2023/12/19 02:18:18;;;;;;;0.80;0.50;;;;;;;-143.84;52.15;45184.25;5048557;28;20562;-57
2023/12/19 02:20:45;;;;;;;0.80;0.70;;;;;;;-143.84;52.35;45191.88;5048835;28;21001;-57
2023/12/19 02:23:14;;;;;;;1.03;0.93;;;;;;;-143.84;52.21;45195.69;5048705;28;20628;-57
2023/12/19 02:25:41;;;;;;;0.80;0.70;;;;;;;-143.84;52.55;45146.19;5048514;28;20512;-57
2023/12/19 02:28:09;;;;;;;0.80;0.40;;;;;;;-143.84;52.67;45170.94;5048656;28;20575;-57
2023/12/19 02:30:36;;;;;;;0.80;0.50;;;;;;;-143.84;52.60;45163.31;5048475;28;20915;-57
2023/12/19 02:33:04;;;;;;;0.80;0.70;;;;;;;-143.84;52.60;45159.50;5048587;28;20441;-57
2023/12/19 02:35:32;;;;;;;1.73;0.90;;;;;;;-143.84;52.51;45170.94;5048555;28;20499;-57
2023/12/19 02:37:59;;;;;;;0.80;0.60;;;;;;;-143.84;52.74;45184.25;5048614;28;20499;-57
2023/12/19 02:40:27;;;;;;;0.80;0.50;;;;;;;-143.84;52.61;45163.31;5053346;28;20878;-57
2023/12/19 02:42:54;;;;;;;0.90;0.60;;;;;;;-143.84;52.72;45157.59;5054891;28;20449;-56
2023/12/19 02:45:21;;;;;;;0.80;0.50;;;;;;;-143.84;52.80;45197.59;5055238;28;20437;-57
2023/12/19 02:47:49;;;;;;;1.27;1.03;;;;;;;-143.84;52.94;45186.16;5055122;28;20446;-57
2023/12/19 02:50:16;;;;;;;1.00;0.90;;;;;;;-143.84;52.66;45167.13;5055126;28;20460;-57
2023/12/19 02:52:43;;;;;;;0.80;0.40;;;;;;;-143.84;52.69;45186.16;5055175;28;21224;-57
2023/12/19 02:55:12;;;;;;;0.80;0.40;;;;;;;-143.84;52.45;45169.03;5054986;28;20909;-57
2023/12/19 02:57:40;;;;;;;0.80;0.40;;;;;;;-143.84;52.27;45176.66;5054912;28;20898;-57
2023/12/19 03:00:09;;;;;;;0.80;0.40;;;;;;;-143.84;52.45;45186.16;5055053;28;20476;-57
2023/12/19 03:02:36;;;;;;;0.80;0.70;;;;;;;-143.84;52.21;45186.16;5054205;28;20434;-57
2023/12/19 03:05:03;;;;;;;1.97;1.20;;;;;;;-143.84;51.86;45157.59;5053937;28;20498;-57
2023/12/19 03:07:30;;;;;;;1.00;0.90;;;;;;;-143.84;51.98;45174.75;5054134;28;20508;-57
2023/12/19 03:09:57;;;;;;;0.80;0.40;;;;;;;-143.84;51.83;45178.56;5054538;28;21103;-57
2023/12/19 03:12:24;;;;;;;0.80;0.60;;;;;;;-143.84;51.62;45186.16;5053980;28;20450;-57
2023/12/19 03:14:53;;;;;;;0.80;0.40;;;;;;;-143.84;51.71;45191.88;5054260;28;20445;-57
2023/12/19 03:17:20;;;;;;;0.80;0.50;;;;;;;-143.84;51.79;45180.47;5054923;28;20473;-57
2023/12/19 03:19:47;;;;;;;1.20;1.10;;;;;;;-143.84;52.18;45174.75;5054887;28;20477;-57
2023/12/19 03:22:14;;;;;;;2.50;0.70;;;;;;;-143.84;52.24;45178.56;5054730;28;20472;-57
2023/12/19 03:24:41;;;;;;;1.07;0.77;;;;;;;-143.84;52.33;45170.94;5054923;28;20484;-57
2023/12/19 03:27:10;;;;;;;0.80;0.40;;;;;;;-143.84;52.13;45169.03;5054756;28;20454;-57
2023/12/19 03:29:37;;;;;;;0.90;0.60;;;;;;;-143.84;51.72;45180.47;5054840;28;20939;-57
2023/12/19 03:32:07;;;;;;;1.33;1.23;;;;;;;-143.84;51.83;45169.03;5054651;28;20537;-57
2023/12/19 03:34:34;;;;;;;0.80;0.50;;;;;;;-143.84;51.62;45197.59;5054626;28;20457;-57
2023/12/19 03:37:02;;;;;;;3.83;1.83;;;;;;;-143.84;51.10;45186.16;5054540;28;20445;-57
2023/12/19 03:39:29;;;;;;;0.90;0.63;;;;;;;-143.84;50.87;45182.38;5054296;28;20487;-57
2023/12/19 03:41:56;;;;;;;1.10;0.83;;;;;;;-143.84;51.05;45201.41;5054670;28;20951;-57
2023/12/19 03:44:23;;;;;;;0.80;0.50;;;;;;;-143.84;50.77;45159.50;5054630;28;20495;-57
2023/12/19 03:46:50;;;;;;;0.80;0.40;;;;;;;-143.84;50.56;45174.75;5054423;28;20495;-57
2023/12/19 03:49:18;;;;;;;1.37;0.90;;;;;;;-143.84;50.64;45174.75;5054544;28;20947;-57
2023/12/19 03:51:47;;;;;;;0.80;0.50;;;;;;;-143.84;50.45;45172.84;5051327;28;20437;-57
2023/12/19 03:54:14;;;;;;;0.80;0.40;;;;;;;-143.84;50.50;45151.91;5051337;28;20520;-57
2023/12/19 03:56:42;;;;;;;2.00;1.00;;;;;;;-143.84;50.40;45163.31;5051082;28;20927;-57
2023/12/19 03:59:09;;;;;;;1.40;0.80;;;;;;;-143.84;50.44;45159.50;5051284;28;21186;-57
2023/12/19 04:01:44;;;;;;;0.80;0.40;;;;;;;-143.84;50.59;45193.78;5051299;28;20923;-57
2023/12/19 04:04:11;;;;;;;2.30;0.90;;;;;;;-143.84;50.62;45201.41;5051085;28;20473;-57
2023/12/19 04:06:43;;;;;;;0.80;0.50;;;;;;;-143.84;50.65;45193.78;5051095;28;20441;-57
2023/12/19 04:09:10;;;;;;;0.80;0.50;;;;;;;-143.84;50.48;45228.06;5051221;28;20458;-57
2023/12/19 04:11:38;;;;;;;1.43;1.33;;;;;;;-143.84;50.58;45174.75;5050883;28;20541;-57
2023/12/19 04:14:05;;;;;;;0.80;0.50;;;;;;;-143.84;50.56;45174.75;5050519;28;20519;-57
2023/12/19 04:16:33;;;;;;;0.80;0.50;;;;;;;-143.84;50.48;45203.31;5050680;28;20448;-57
2023/12/19 04:19:00;;;;;;;0.80;0.40;;;;;;;-143.84;50.41;45184.25;5050788;28;20853;-57
2023/12/19 04:21:27;;;;;;;0.80;0.40;;;;;;;-143.84;50.82;45195.69;5051039;28;20855;-57
2023/12/19 04:23:55;;;;;;;0.90;0.53;;;;;;;-143.84;50.60;45150.00;5049943;28;20453;-60
2023/12/19 04:26:22;;;;;;;0.80;0.47;;;;;;;-143.84;50.63;45169.03;5050584;28;20442;-60
2023/12/19 04:28:49;;;;;;;0.80;0.50;;;;;;;-143.84;50.70;45193.78;5050620;28;20954;-60
2023/12/19 04:31:17;;;;;;;1.10;0.73;;;;;;;-143.84;50.45;45172.84;5050329;28;20495;-60
2023/12/19 04:33:44;;;;;;;0.80;0.50;;;;;;;-143.84;50.78;45201.41;5050449;28;21128;-56
2023/12/19 04:36:11;;;;;;;0.80;0.40;;;;;;;-143.84;50.48;45161.41;5050407;28;20434;-57
2023/12/19 04:38:39;;;;;;;0.80;0.50;;;;;;;-143.84;50.38;45186.16;5049399;28;20460;-57
2023/12/19 04:41:08;;;;;;;1.00;0.60;;;;;;;-143.84;50.21;45176.66;5045045;28;20815;-57
2023/12/19 04:43:35;;;;;;;0.80;0.50;;;;;;;-143.84;50.09;45186.16;5050380;28;20434;-56
2023/12/19 04:46:02;;;;;;;0.90;0.70;;;;;;;-143.84;50.53;45186.16;5050559;28;20865;-57
2023/12/19 04:48:31;;;;;;;0.80;0.50;;;;;;;-143.84;50.11;45191.88;5050325;28;20529;-57
2023/12/19 04:50:59;;;;;;;0.80;0.50;;;;;;;-143.84;50.16;45191.88;5050266;28;20449;-57
2023/12/19 04:53:26;;;;;;;0.90;0.73;;;;;;;-143.84;50.16;45186.16;5049722;28;20861;-56
2023/12/19 04:55:53;;;;;;;0.93;0.60;;;;;;;-143.84;50.22;45178.56;5049420;28;20532;-59
2023/12/19 04:58:22;;;;;;;1.20;1.10;;;;;;;-143.84;50.50;45186.16;5050283;28;20464;-59
2023/12/19 05:00:51;;;;;;;0.80;0.50;;;;;;;-143.84;50.23;45138.56;5049875;28;20477;-59
2023/12/19 05:03:18;;;;;;;0.80;0.60;;;;;;;-143.84;50.19;45167.13;5049435;28;20449;-59
2023/12/19 05:05:45;;;;;;;1.87;0.77;;;;;;;-143.84;50.26;45182.38;5049827;28;20527;-59
2023/12/19 05:08:15;;;;;;;0.80;0.47;;;;;;;-143.84;50.25;45191.88;5049728;28;20449;-59
2023/12/19 05:10:43;;;;;;;0.80;0.40;;;;;;;-143.84;50.16;45178.56;5049903;28;20442;-59
2023/12/19 05:13:10;;;;;;;0.80;0.40;;;;;;;-143.84;50.33;45210.94;5050033;28;20450;-59
2023/12/19 05:15:39;;;;;;;0.80;0.60;;;;;;;-143.84;50.55;45167.13;5049873;28;21361;-59
2023/12/19 05:18:07;;;;;;;0.80;0.50;;;;;;;-143.84;50.70;45188.06;5049784;28;20441;-59
2023/12/19 05:20:34;;;;;;;0.80;0.50;;;;;;;-143.84;50.47;45180.47;5049530;28;20539;-59
2023/12/19 05:23:01;;;;;;;0.80;0.60;;;;;;;-143.84;50.69;45150.00;5049712;28;21106;-59
2023/12/19 05:25:29;;;;;;;1.77;1.40;;;;;;;-143.84;50.69;45178.56;5049306;28;20437;-59
2023/12/19 05:27:56;;;;;;;2.33;1.20;;;;;;;-143.84;50.45;45170.94;5049765;28;20439;-59
2023/12/19 05:30:23;;;;;;;0.80;0.40;;;;;;;-143.84;50.29;45178.56;5049491;28;20500;-59
2023/12/19 05:32:52;;;;;;;0.80;0.40;;;;;;;-143.84;50.11;45191.88;5049428;28;20521;-59
2023/12/19 05:35:19;;;;;;;1.37;1.27;;;;;;;-143.84;50.22;45186.16;5049589;28;20922;-58
2023/12/19 05:37:46;;;;;;;0.80;0.50;;;;;;;-143.84;50.21;45195.69;5049160;28;20441;-59
2023/12/19 05:40:13;;;;;;;0.80;0.50;;;;;;;-143.84;50.25;45176.66;5049173;28;20493;-58
2023/12/19 05:42:40;;;;;;;0.90;0.80;;;;;;;-143.84;50.30;45176.66;5049405;28;20873;-58
2023/12/19 05:45:08;;;;;;;0.80;0.63;;;;;;;-143.84;50.35;45184.25;5049296;28;20430;-59
2023/12/19 05:47:36;;;;;;;0.80;0.43;;;;;;;-143.84;50.19;45169.03;5049033;28;20492;-58
2023/12/19 05:50:05;;;;;;;0.80;0.40;;;;;;;-143.84;50.18;45155.69;5049046;28;20452;-58
2023/12/19 05:52:32;;;;;;;1.10;1.00;;;;;;;-143.84;50.19;45207.13;5048767;28;20441;-59
2023/12/19 05:54:59;;;;;;;0.80;0.60;;;;;;;-143.84;49.97;45176.66;5048683;28;20493;-59
2023/12/19 05:57:26;;;;;;;0.80;0.50;;;;;;;-143.84;49.73;45184.25;5049089;28;20484;-59
2023/12/19 05:59:53;;;;;;;0.80;0.40;;;;;;;-143.84;49.62;45172.84;5048751;28;20485;-59
2023/12/19 06:02:21;;;;;;;0.80;0.40;;;;;;;-143.84;49.89;45165.22;5048986;28;20442;-59
2023/12/19 06:04:49;;;;;;;0.90;0.70;;;;;;;-143.84;49.62;45188.06;5048836;28;21139;-59
2023/12/19 06:07:18;;;;;;;0.90;0.60;;;;;;;-143.84;49.80;45170.94;5048435;28;20495;-59
2023/12/19 06:09:45;;;;;;;1.03;0.93;;;;;;;-143.84;49.68;45157.59;5048752;28;20804;-59
2023/12/19 06:12:13;;;;;;;0.80;0.60;;;;;;;-143.84;49.81;45170.94;5048664;28;20442;-59
2023/12/19 06:14:40;;;;;;;2.17;1.43;;;;;;;-143.84;49.05;45153.81;5047958;28;20449;-59
2023/12/19 06:17:07;;;;;;;1.30;1.10;;;;;;;-143.84;49.22;45174.75;5048779;28;20437;-59
2023/12/19 06:19:34;;;;;;;1.67;1.57;;;;;;;-143.84;48.83;45167.13;5048474;28;20485;-59
2023/12/19 06:22:01;;;;;;;1.33;1.23;;;;;;;-143.84;49.01;45163.31;5048452;28;20445;-59
2023/12/19 06:24:30;;;;;;;0.90;0.70;;;;;;;-143.84;49.16;45186.16;5048374;28;20437;-59
2023/12/19 06:26:57;;;;;;;0.90;0.60;;;;;;;-143.84;49.27;45157.59;5048632;28;20495;-59
2023/12/19 06:29:25;;;;;;;0.80;0.40;;;;;;;-143.84;49.14;45180.47;5048476;28;20457;-59
2023/12/19 06:31:52;;;;;;;1.10;0.60;;;;;;;-143.84;49.04;45161.41;5048380;28;20465;-59
2023/12/19 06:34:19;;;;;;;0.80;0.40;;;;;;;-143.84;48.73;45161.41;5048376;28;20442;-59
2023/12/19 06:36:46;;;;;;;1.00;0.70;;;;;;;-143.84;48.41;45159.50;5048549;28;20456;-59
2023/12/19 06:39:14;;;;;;;1.00;0.80;;;;;;;-143.84;48.35;45184.25;5048454;28;20445;-59
2023/12/19 06:41:43;;;;;;;0.93;0.83;;;;;;;-143.84;48.03;45174.75;5048331;28;21019;-59
2023/12/19 06:44:10;;;;;;;0.80;0.50;;;;;;;-143.84;48.23;45140.47;5048798;28;20441;-59
2023/12/19 06:46:37;;;;;;;0.80;0.43;;;;;;;-143.84;48.64;45155.69;5048485;28;20503;-59
2023/12/19 06:49:04;;;;;;;2.40;1.10;;;;;;;-143.84;48.54;45148.09;5048304;28;21269;-59
2023/12/19 06:51:32;;;;;;;2.00;0.90;;;;;;;-143.84;48.18;45169.03;5048958;28;20441;-59
2023/12/19 06:53:59;;;;;;;0.90;0.60;;;;;;;-143.84;46.49;45174.75;5048390;28;21104;-59
2023/12/19 06:56:28;;;;;;;0.90;0.63;;;;;;;-143.84;46.70;45178.56;5048406;28;20438;-59
2023/12/19 06:58:57;;;;;;;0.80;0.50;;;;;;;-143.84;45.97;45155.69;5048272;28;20579;-59
2023/12/19 07:01:25;;;;;;;1.33;0.90;;;;;;;-143.84;45.35;45163.31;5048209;28;20485;-58
2023/12/19 07:03:52;;;;;;;0.80;0.60;;;;;;;-143.84;44.91;45132.84;5048078;28;20438;-58
2023/12/19 07:06:20;;;;;;;0.83;0.47;;;;;;;-143.84;44.70;45148.09;5048153;28;20438;-59
2023/12/19 07:08:47;;;;;;;0.83;0.50;;;;;;;-143.84;43.75;45159.50;5048452;28;20433;-59
2023/12/19 07:11:15;;;;;;;0.80;0.40;;;;;;;-143.84;42.97;45167.13;5048189;28;20947;-59
2023/12/19 07:13:42;;;;;;;0.83;0.53;;;;;;;-143.84;42.73;45153.81;5048115;28;20525;-59
2023/12/19 07:16:14;;;;;;;0.80;0.40;;;;;;;-143.84;41.71;45134.75;5048009;28;20457;-59
2023/12/19 07:18:41;;;;;;;1.00;0.50;;;;;;;-143.84;41.23;45134.75;5047856;28;20524;-59
2023/12/19 07:21:08;;;;;;;0.90;0.70;;;;;;;-143.84;40.63;45153.81;5047920;28;20477;-58
2023/12/19 07:23:36;;;;;;;1.10;1.00;;;;;;;-143.84;39.90;45129.03;5048121;28;20464;-59
2023/12/19 07:26:03;;;;;;;1.00;0.83;;;;;;;-143.84;39.92;45148.09;5049502;28;20449;-59
2023/12/19 07:28:30;;;;;;;2.43;0.83;;;;;;;-143.84;38.93;45117.63;5051860;28;20433;-59
2023/12/19 07:30:57;;;;;;;3.57;0.70;;;;;;;-143.84;40.20;45127.13;5051884;28;20445;-58
2023/12/19 07:33:25;;;;;;;1.20;0.70;;;;;;;-143.84;38.21;45113.81;5051670;28;20437;-57
2023/12/19 07:35:52;;;;;;;1.60;0.97;;;;;;;-143.84;37.84;45123.34;5051920;28;20516;-56
2023/12/19 07:38:21;;;;;;;2.13;1.23;;;;;;;-143.84;37.72;45123.34;5051034;28;20449;-57
2023/12/19 07:40:48;;;;;;;1.20;0.70;;;;;;;-143.84;38.69;45094.78;5050442;28;21002;-56
2023/12/19 07:43:15;;;;;;;0.97;0.73;;;;;;;-143.84;36.87;45117.63;5050730;28;20433;-56
2023/12/19 07:45:43;;;;;;;1.23;0.63;;;;;;;-143.84;37.62;45111.91;5050923;28;20528;-56
2023/12/19 07:48:10;;;;;;;4.43;1.63;;;;;;;-143.84;36.68;45110.00;5050634;28;20446;-56
2023/12/19 07:50:38;;;;;;;0.90;0.70;;;;;;;-143.84;36.87;45108.09;5050848;28;20430;-56
2023/12/19 07:53:06;;;;;;;1.30;0.73;;;;;;;-143.84;36.17;45098.56;5051213;28;20970;-57
2023/12/19 07:55:33;;;;;;;1.90;1.13;;;;;;;-143.84;34.91;45111.91;5051024;28;20480;-56
2023/12/19 07:58:00;;;;;;;0.90;0.63;;;;;;;-143.84;34.94;45102.38;5051285;28;20460;-56
2023/12/19 08:00:27;;;;;;;1.40;0.83;;;;;;;-143.84;34.95;45125.22;5051240;28;20481;-56
2023/12/19 08:02:54;;;;;;;1.80;1.70;;;;;;;-143.84;34.99;45092.88;5051287;28;20510;-56
2023/12/19 08:05:21;;;;;;;2.00;0.80;;;;;;;-143.84;34.90;45102.38;5051101;28;20999;-57
2023/12/19 08:07:50;;;;;;;4.00;1.30;;;;;;;-143.84;33.68;45102.38;5051220;28;20444;-56
2023/12/19 08:10:17;;;;;;;0.80;0.50;;;;;;;-143.84;33.04;45119.53;5051184;28;20438;-57
2023/12/19 08:12:45;;;;;;;1.33;0.60;;;;;;;-143.84;33.48;45087.16;5050857;28;20446;-56
2023/12/19 08:15:12;;;;;;;1.20;1.10;;;;;;;-143.84;33.38;45083.34;5051203;28;20452;-56
2023/12/19 08:17:40;;;;;;;1.40;1.30;;;;;;;-143.84;33.80;45079.53;5050806;28;20507;-56
2023/12/19 08:20:10;;;;;;;1.20;1.10;;;;;;;-143.84;34.52;45075.72;5050931;28;20501;-56
2023/12/19 08:22:37;;;;;;;3.80;2.07;;;;;;;-143.84;34.83;45117.63;5050709;28;20499;-56
2023/12/19 08:25:07;;;;;;;1.23;1.13;;;;;;;-143.84;34.01;45098.56;5050701;28;20436;-57
2023/12/19 08:27:35;;;;;;;0.90;0.60;;;;;;;-143.84;33.40;45071.91;5050881;28;20449;-56
2023/12/19 08:30:03;;;;;;;1.40;1.30;;;;;;;-143.84;33.24;45096.66;5050787;28;20446;-57
2023/12/19 08:32:30;;;;;;;1.20;1.07;;;;;;;-143.84;33.17;45075.72;5050743;28;20993;-56
2023/12/19 08:34:58;;;;;;;2.07;1.13;;;;;;;-143.84;34.54;45104.28;5050902;28;20433;-59
2023/12/19 08:37:26;;;;;;;1.80;1.70;;;;;;;-143.84;33.73;45081.44;5049515;28;20446;-59
2023/12/19 08:39:57;;;;;;;2.40;1.10;;;;;;;-143.84;34.57;45090.97;5050589;28;21017;-59
2023/12/19 08:42:26;;;;;;;3.63;1.50;;;;;;;-143.84;35.33;45092.88;5050299;28;20449;-59
2023/12/19 08:44:55;;;;;;;2.23;1.63;;;;;;;-143.84;33.87;45081.44;5050373;28;20437;-60
2023/12/19 08:47:23;;;;;;;2.83;2.60;;;;;;;-143.84;34.35;45094.78;5050360;28;20434;-60
2023/12/19 08:49:52;;;;;;;3.80;2.43;;;;;;;-143.84;34.86;45087.16;5050542;28;20442;-60
2023/12/19 08:52:20;;;;;;;2.20;1.37;;;;;;;-143.84;34.14;45077.63;5050009;28;20442;-60
2023/12/19 08:54:47;;;;;;;1.47;1.37;;;;;;;-143.84;33.69;45071.91;5049802;28;20491;-60
2023/12/19 08:57:14;;;;;;;4.67;2.57;;;;;;;-143.84;34.05;45068.13;5049930;28;20440;-60
2023/12/19 08:59:43;;;;;;;2.40;2.13;;;;;;;-143.84;33.51;45094.78;5049713;28;20442;-60
2023/12/19 09:02:10;;;;;;;2.70;1.30;;;;;;;-143.84;32.20;45092.88;5049977;28;20481;-60
2023/12/19 09:04:37;;;;;;;1.93;1.33;;;;;;;-143.84;32.23;45070.00;5049867;28;20460;-60
2023/12/19 09:07:04;;;;;;;1.90;1.80;;;;;;;-143.84;33.33;45102.38;5050008;28;20449;-60
2023/12/19 09:09:31;;;;;;;5.50;1.77;;;;;;;-143.84;32.64;45108.09;5049644;28;20450;-60
2023/12/19 09:11:59;;;;;;;3.20;2.20;;;;;;;-143.84;33.54;45094.78;5049914;28;20495;-60
2023/12/19 09:14:26;;;;;;;2.77;1.60;;;;;;;-143.84;33.66;45089.06;5049678;28;20450;-60
2023/12/19 09:16:54;;;;;;;2.80;2.27;;;;;;;-143.84;33.19;45087.16;5049577;28;20436;-60
2023/12/19 09:19:21;;;;;;;1.33;1.23;;;;;;;-143.84;33.25;45090.97;5049547;28;20476;-60
2023/12/19 09:21:48;;;;;;;2.73;1.87;;;;;;;-143.84;32.86;45117.63;5049564;28;20477;-60
2023/12/19 09:24:15;;;;;;;3.00;1.10;;;;;;;-143.84;33.46;45077.63;5049833;28;20500;-59
2023/12/19 09:26:43;;;;;;;1.33;0.67;;;;;;;-143.84;32.87;45094.78;5049420;28;20445;-59
2023/12/19 09:29:10;;;;;;;3.87;1.97;;;;;;;-143.84;33.33;45085.25;5059518;28;20966;-59
2023/12/19 09:31:37;;;;;;;2.50;1.30;;;;;;;-143.84;32.00;45050.97;5049948;28;20845;-60
2023/12/19 09:34:08;;;;;;;1.33;0.90;;;;;;;-143.84;32.32;45087.16;5049200;28;20437;-60
2023/12/19 09:36:36;;;;;;;1.77;1.10;;;;;;;-143.84;32.42;45087.16;5049208;28;20452;-59
2023/12/19 09:39:04;;;;;;;1.80;1.70;;;;;;;-143.84;32.13;45083.34;5049404;28;20442;-59
2023/12/19 09:41:31;;;;;;;2.03;1.80;;;;;;;-143.84;32.29;45071.91;5049128;28;21006;-60
2023/12/19 09:43:58;;;;;;;1.47;1.37;;;;;;;-143.84;33.53;45090.97;5048924;28;20502;-60
2023/12/19 09:46:29;;;;;;;2.43;2.20;;;;;;;-143.84;34.46;45087.16;5049108;28;20529;-60
2023/12/19 09:48:56;;;;;;;1.60;1.50;;;;;;;-143.84;34.54;45085.25;5048355;28;20450;-59
2023/12/19 09:51:29;;;;;;;1.53;1.43;;;;;;;-143.84;34.45;45066.22;5049138;28;20434;-59
2023/12/19 09:53:57;;;;;;;2.50;2.00;;;;;;;-143.84;33.12;45079.53;5048804;28;20494;-59
2023/12/19 09:56:25;;;;;;;1.70;1.60;;;;;;;-143.84;34.37;45100.47;5048880;28;20453;-62
2023/12/19 09:58:54;;;;;;;1.73;1.63;;;;;;;-143.84;34.84;45098.56;5049139;28;20472;-59
2023/12/19 10:01:21;;;;;;;2.30;1.47;;;;;;;-143.84;34.31;45100.47;5049056;28;20481;-59
2023/12/19 10:03:50;;;;;;;2.70;2.43;;;;;;;-143.84;34.91;45079.53;5049088;28;20445;-59
2023/12/19 10:06:18;;;;;;;5.60;2.37;;;;;;;-143.84;34.75;45090.97;5048673;28;20445;-59
2023/12/19 10:08:47;;;;;;;3.30;1.80;;;;;;;-143.84;35.38;45075.72;5048925;28;20449;-59
2023/12/19 10:11:17;;;;;;;1.00;0.90;;;;;;;-143.84;35.90;45075.72;5048854;28;20464;-59
2023/12/19 10:13:47;;;;;;;3.73;2.27;;;;;;;-143.84;36.21;45083.34;5048721;28;20450;-59
2023/12/19 10:16:17;;;;;;;3.10;2.23;;;;;;;-143.84;35.79;45106.19;5048601;28;20951;-58
2023/12/19 10:18:45;;;;;;;2.40;2.10;;;;;;;-143.84;34.85;45100.47;5048538;28;20446;-59
2023/12/19 10:21:14;;;;;;;1.23;1.13;;;;;;;-143.84;35.45;45115.72;5048554;28;20485;-59
2023/12/19 10:23:42;;;;;;;1.40;1.30;;;;;;;-143.84;36.28;45083.34;5048475;28;20515;-59
2023/12/19 10:26:10;;;;;;;1.77;1.67;;;;;;;-143.84;35.89;45090.97;5048741;28;20434;-59
2023/12/19 10:28:38;;;;;;;3.23;2.83;;;;;;;-143.84;36.03;45104.28;5048669;28;20441;-59
2023/12/19 10:31:12;;;;;;;1.30;1.03;;;;;;;-143.84;35.40;45081.44;5048613;28;20536;-59
2023/12/19 10:33:45;;;;;;;1.30;1.20;;;;;;;-143.84;36.46;45098.56;5048583;28;20465;-59
2023/12/19 10:36:24;;;;;;;1.57;1.47;;;;;;;-143.84;36.73;45077.63;5048460;28;20438;-59
2023/12/19 10:38:52;;;;;;;2.50;1.53;;;;;;;-143.84;36.08;45104.28;5048474;28;21002;-59
2023/12/19 10:41:23;;;;;;;1.60;1.50;;;;;;;-143.84;35.76;45098.56;5048445;28;20474;-59
2023/12/19 10:43:52;;;;;;;1.60;1.50;;;;;;;-143.84;35.37;45102.38;5048417;28;20846;-59
2023/12/19 10:46:24;;;;;;;1.10;0.83;;;;;;;-143.84;35.50;45070.00;5048408;28;20819;-59
2023/12/19 10:48:53;;;;;;;1.83;1.43;;;;;;;-143.84;36.87;45089.06;5048904;28;20445;-59
2023/12/19 10:51:29;;;;;;;2.83;1.70;;;;;;;-143.84;37.00;45106.19;5048431;28;20430;-59
2023/12/19 10:54:01;;;;;;;1.07;0.80;;;;;;;-143.84;37.05;45094.78;5048000;28;20481;-59
2023/12/19 10:56:39;;;;;;;4.03;1.13;;;;;;;-143.84;36.56;45130.94;5048362;28;20433;-59
2023/12/19 10:59:08;;;;;;;3.27;1.23;;;;;;;-143.84;36.44;45085.25;5048047;28;20450;-58
2023/12/19 11:01:39;;;;;;;4.33;1.93;;;;;;;-143.84;37.57;45117.63;5050833;28;20586;-59
2023/12/19 11:04:13;;;;;;;1.17;0.90;;;;;;;-143.84;37.89;45115.72;5052409;28;20449;-58
2023/12/19 11:06:43;;;;;;;2.10;1.20;;;;;;;-143.84;38.65;45104.28;5052263;28;20434;-58
2023/12/19 11:09:18;;;;;;;1.73;1.50;;;;;;;-143.84;37.70;45106.19;5052095;28;20445;-58
2023/12/19 11:11:46;;;;;;;0.90;0.80;;;;;;;-143.84;38.15;45108.09;5052328;28;20774;-58
2023/12/19 11:14:15;;;;;;;2.07;1.13;;;;;;;-143.84;38.41;45117.63;5052108;28;20948;-58
2023/12/19 11:16:49;;;;;;;0.90;0.73;;;;;;;-143.84;38.78;45125.22;5052070;28;20818;-58
2023/12/19 11:19:21;;;;;;;5.97;2.50;;;;;;;-143.84;39.05;45125.22;5052137;28;20740;-58